Groton, Connecticut
Current Conditions -  °F | °C
As of 12:56 AM on Tuesday 27 Jan 2015 (Local Time) from KGON Reporting Station
Moderate Fog Moderate Fog  
Wind Chill:   Ceiling: 600
Heat Index: 20°   Visibility: 0.5mi
Dew Point: 19°   Wind: 22mph
Humidity: 96%   Direction: 20°NNE
Pressure: 29.56"   Gusts: 38mph
Location:  41.35°N, 72.07°W
Report Text: KGON 270556Z AUTO 02019G33KT 1/2SM R05/2600V3500FT FZFG VV006 M07/M07 A2956 RMK AO2 SNEMM SLP011 P0000 60000 T10671072 11022 21067 56049 PWINO FZRANO $
Loading
Personal Weather Stations






























Interactive Weather Map New forecast layout! Learn more

10-Day Weather Forecast

Advertisements
Track Severe Weather on mobile